Time;durP1;ratioP1;P1;durP2;ratioP2;P2;SDS_P1;SDS_P2;PMS_P1;PMS_P2;Temp;Humidity;BMP_temperature;BMP_pressure;BME280_temperature;BME280_humidity;BME280_pressure;Samples;Min_cycle;Max_cycle;Signal;HPM_P1;HPM_P2
2022/12/22 09:58:44;;;;;;;10.73;2.23;;;;;;;12.06;100.00;97865.75;5130483;27;20554;-85
2022/12/22 10:01:32;;;;;;;9.57;2.13;;;;;;;12.72;100.00;97839.72;5147185;27;39105;-84
2022/12/22 10:04:06;;;;;;;10.47;2.00;;;;;;;13.32;100.00;97876.97;5112427;27;41898;-82
2022/12/22 10:06:40;;;;;;;7.03;1.67;;;;;;;13.28;100.00;97879.91;5111996;27;45217;-88
2022/12/22 10:09:17;;;;;;;5.67;1.83;;;;;;;13.25;100.00;97872.19;5112242;27;41398;-88
2022/12/22 10:11:52;;;;;;;5.83;2.10;;;;;;;13.16;96.55;97866.84;5112087;27;38714;-85
2022/12/22 10:14:22;;;;;;;5.27;1.73;;;;;;;13.04;96.06;97858.13;5112462;27;40994;-89
2022/12/22 10:16:49;;;;;;;7.77;2.00;;;;;;;13.12;95.57;97876.88;5112183;27;41827;-87
2022/12/22 10:19:20;;;;;;;6.23;1.80;;;;;;;13.08;93.93;97869.34;5111958;27;42436;-83
2022/12/22 10:21:48;;;;;;;6.33;1.80;;;;;;;12.98;94.08;97861.34;5112479;27;39012;-88
2022/12/22 10:24:18;;;;;;;4.10;1.53;;;;;;;12.94;92.75;97867.88;5112220;27;40719;-83
2022/12/22 10:26:46;;;;;;;6.20;1.50;;;;;;;12.95;92.69;97874.88;5112027;27;43543;-86
2022/12/22 10:29:17;;;;;;;4.23;1.93;;;;;;;12.91;91.61;97879.63;5129151;27;43160;-85
2022/12/22 10:32:13;;;;;;;5.97;1.67;;;;;;;12.86;91.29;97886.28;5111793;27;39702;-81
2022/12/22 10:35:00;;;;;;;5.30;1.77;;;;;;;12.78;91.60;97883.47;5109682;27;40691;-84
2022/12/22 10:37:35;;;;;;;6.17;1.93;;;;;;;12.63;91.59;97871.50;5128872;27;43687;-85
2022/12/22 10:40:15;;;;;;;3.97;1.73;;;;;;;12.66;92.02;97885.38;5111717;27;41370;-86
2022/12/22 10:42:48;;;;;;;5.90;1.97;;;;;;;12.58;91.64;97879.91;5111417;27;38950;-84
2022/12/22 10:45:20;;;;;;;7.87;1.80;;;;;;;12.46;91.88;97873.84;5111694;27;40738;-85
2022/12/22 10:47:53;;;;;;;5.67;1.47;;;;;;;12.46;91.67;97889.75;5111707;27;41904;-84
2022/12/22 10:50:22;;;;;;;3.47;1.40;;;;;;;12.44;91.86;97889.03;5111559;27;41996;-86
2022/12/22 10:52:52;;;;;;;5.70;1.70;;;;;;;12.23;91.42;97873.16;5128673;27;40674;-84
2022/12/22 10:55:24;;;;;;;4.37;1.33;;;;;;;12.24;91.79;97868.66;5145865;27;40862;-87
2022/12/22 10:57:52;;;;;;;4.70;1.50;;;;;;;12.22;91.52;97860.00;5111142;27;43347;-85
2022/12/22 11:00:27;;;;;;;4.13;1.50;;;;;;;12.32;92.01;97871.50;5111642;27;41079;-86
2022/12/22 11:03:00;;;;;;;4.80;1.70;;;;;;;12.20;92.34;97856.63;5111400;27;39343;-89
2022/12/22 11:05:29;;;;;;;5.77;1.23;;;;;;;12.32;92.00;97879.47;5128801;27;41498;-83
2022/12/22 11:08:01;;;;;;;3.20;1.80;;;;;;;12.26;92.41;97869.38;5109677;27;43227;-82
2022/12/22 11:10:36;;;;;;;3.93;1.50;;;;;;;12.15;92.85;97856.16;5098144;28;41037;-83
2022/12/22 11:13:18;;;;;;;4.00;1.50;;;;;;;12.16;93.03;97848.06;5097842;28;41039;-87
2022/12/22 11:15:51;;;;;;;6.33;1.40;;;;;;;12.14;93.31;97833.25;5131809;27;40944;-85
2022/12/22 11:18:38;;;;;;;3.97;1.67;;;;;;;12.26;93.98;97856.09;5097266;28;41786;-86
2022/12/22 11:21:15;;;;;;;4.90;1.20;;;;;;;12.02;94.62;97836.94;5098071;28;41248;-84
2022/12/22 11:23:53;;;;;;;3.73;1.30;;;;;;;12.22;95.39;97850.22;5111972;28;40139;-84
2022/12/22 11:26:31;;;;;;;4.57;1.40;;;;;;;12.12;96.09;97848.44;5114632;28;41761;-87
2022/12/22 11:29:20;;;;;;;4.90;1.60;;;;;;;12.07;96.39;97856.81;5097540;28;41683;-88
2022/12/22 11:32:05;;;;;;;4.00;1.60;;;;;;;12.13;96.92;97836.88;5098054;28;40795;-83
2022/12/22 11:34:51;;;;;;;2.50;1.07;;;;;;;12.14;95.87;97857.97;5097369;28;40213;-87
2022/12/22 11:37:30;;;;;;;7.07;1.77;;;;;;;12.14;95.80;97847.34;5096977;28;41436;-87
2022/12/22 11:40:08;;;;;;;2.83;1.30;;;;;;;12.00;95.79;97849.50;5111450;28;44065;-88
2022/12/22 11:42:53;;;;;;;2.53;1.20;;;;;;;11.95;95.82;97843.75;5097461;28;40953;-87
2022/12/22 11:45:37;;;;;;;3.20;1.00;;;;;;;12.05;96.00;97863.22;5097317;28;39409;-84
2022/12/22 11:48:14;;;;;;;2.70;1.23;;;;;;;11.99;95.43;97874.38;5096882;28;41034;-91
2022/12/22 11:50:46;;;;;;;1.57;0.83;;;;;;;11.93;96.67;97869.56;5097487;28;41986;-87
2022/12/22 11:53:28;;;;;;;2.27;0.83;;;;;;;11.93;97.33;97890.78;5097144;28;41057;-86
2022/12/22 11:56:16;;;;;;;2.50;1.00;;;;;;;11.85;97.66;97867.56;5097041;28;39066;-89
2022/12/22 11:58:58;;;;;;;3.07;1.10;;;;;;;11.89;97.82;97884.88;5097052;28;41879;-88
2022/12/22 12:01:53;;;;;;;2.27;1.00;;;;;;;11.94;98.37;97903.09;5096981;28;41485;-89
2022/12/22 12:04:47;;;;;;;2.30;1.10;;;;;;;11.79;99.00;97890.13;5096728;28;41165;-87
2022/12/22 12:07:25;;;;;;;2.20;0.80;;;;;;;11.84;99.32;97901.19;5097463;28;38701;-88
2022/12/22 12:10:06;;;;;;;1.27;0.70;;;;;;;11.78;99.55;97901.69;5113243;28;42508;-87
2022/12/22 12:12:44;;;;;;;1.03;0.87;;;;;;;11.63;99.50;97884.34;5097393;28;41772;-88
2022/12/22 12:15:23;;;;;;;1.00;0.73;;;;;;;11.70;99.76;97895.31;5131390;27;41733;-90
2022/12/22 12:18:11;;;;;;;1.80;1.07;;;;;;;11.71;100.00;97920.88;5097358;28;39163;-86
2022/12/22 12:20:50;;;;;;;1.20;1.10;;;;;;;11.44;100.00;97898.28;5130747;27;41452;-89
2022/12/22 12:23:35;;;;;;;1.23;0.80;;;;;;;11.57;100.00;97929.94;5096506;28;41755;-90
2022/12/22 12:26:10;;;;;;;1.10;1.00;;;;;;;11.60;100.00;97926.22;5131210;27;42186;-90
2022/12/22 12:28:51;;;;;;;0.90;0.90;;;;;;;11.57;100.00;97940.56;5097097;28;38943;-86
2022/12/22 12:31:24;;;;;;;1.27;0.77;;;;;;;11.64;100.00;97956.78;5130509;27;41636;-89
2022/12/22 12:33:57;;;;;;;1.60;1.00;;;;;;;11.50;100.00;97936.69;5096705;28;41666;-85
2022/12/22 12:36:35;;;;;;;1.50;0.80;;;;;;;11.62;100.00;97972.00;5129267;27;42455;-87
2022/12/22 12:39:15;;;;;;;1.83;0.70;;;;;;;11.61;100.00;97973.81;5094726;28;40043;-91
2022/12/22 12:41:54;;;;;;;0.80;0.70;;;;;;;11.42;100.00;97960.34;5128858;27;40464;-84
2022/12/22 12:44:27;;;;;;;0.80;0.80;;;;;;;11.68;100.00;97993.56;5094161;28;45056;-89
2022/12/22 12:47:22;;;;;;;2.37;1.03;;;;;;;11.30;100.00;97940.97;5094179;28;41064;-88
2022/12/22 12:50:25;;;;;;;1.00;1.00;;;;;;;11.28;100.00;97956.13;5096483;28;40209;-89
2022/12/22 12:53:06;;;;;;;0.93;0.70;;;;;;;11.71;100.00;98030.47;5095000;28;41130;-91
2022/12/22 12:55:59;;;;;;;1.07;0.70;;;;;;;11.42;100.00;97974.44;5096395;28;42375;-89
2022/12/22 12:58:56;;;;;;;1.83;1.10;;;;;;;11.72;99.90;98026.84;5092951;28;40768;-86
2022/12/22 13:01:58;;;;;;;0.80;0.80;;;;;;;11.70;100.00;98038.53;5082271;28;39227;-91
2022/12/22 15:25:25;;;;;;;2.70;1.40;;;;;;;8.65;100.00;98229.19;5172129;27;20561;-89
2022/12/22 15:27:53;;;;;;;2.20;1.40;;;;;;;9.08;100.00;98223.72;5137136;27;39055;-89
2022/12/22 15:30:26;;;;;;;2.10;1.60;;;;;;;9.14;100.00;98181.06;5136492;27;41004;-89
